Time;durP1;ratioP1;P1;durP2;ratioP2;P2;SDS_P1;SDS_P2;PMS_P1;PMS_P2;Temp;Humidity;BMP_temperature;BMP_pressure;BME280_temperature;BME280_humidity;BME280_pressure;Samples;Min_cycle;Max_cycle;Signal;HPM_P1;HPM_P2
2022/11/30 00:00:29;;;;;;;47.83;27.20;;;9.30;99.00;;;;;;10368512;28;20227;-87
2022/11/30 00:05:31;;;;;;;32.80;19.80;;;9.80;98.00;;;;;;10350534;28;20263;-87
2022/11/30 00:10:34;;;;;;;42.90;26.93;;;10.10;99.90;;;;;;10366914;28;20255;-87
2022/11/30 00:15:36;;;;;;;37.47;21.00;;;10.00;96.90;;;;;;10327620;28;20231;-86
2022/11/30 00:20:39;;;;;;;44.77;26.47;;;9.50;99.90;;;;;;10328030;28;20232;-87
2022/11/30 00:25:41;;;;;;;35.17;21.67;;;9.50;98.70;;;;;;10313938;28;20227;-86
2022/11/30 00:30:44;;;;;;;45.13;25.37;;;9.40;99.90;;;;;;10350750;28;20236;-86
2022/11/30 00:35:55;;;;;;;39.87;22.87;;;9.60;98.50;;;;;;10350677;28;20606;-87
2022/11/30 00:40:59;;;;;;;59.37;30.57;;;9.30;98.70;;;;;;10367951;28;20235;-87
2022/11/30 00:46:02;;;;;;;52.00;28.13;;;9.30;99.90;;;;;;10353565;28;20240;-87
2022/11/30 00:51:06;;;;;;;41.87;22.83;;;9.60;98.70;;;;;;10375863;28;20321;-86
2022/11/30 00:56:09;;;;;;;37.40;21.60;;;9.50;99.40;;;;;;10375550;28;20557;-86
2022/11/30 01:01:11;;;;;;;53.20;29.43;;;9.90;99.90;;;;;;10375528;28;20235;-86
2022/11/30 01:06:14;;;;;;;44.93;24.63;;;9.30;98.80;;;;;;10357864;28;20236;-86
2022/11/30 01:11:23;;;;;;;34.10;19.13;;;9.00;99.90;;;;;;10362206;28;20287;-86
2022/11/30 01:16:28;;;;;;;32.73;18.63;;;9.50;99.90;;;;;;10334687;28;20600;-86
2022/11/30 01:21:31;;;;;;;34.30;19.80;;;9.60;99.90;;;;;;10334202;28;20230;-86
2022/11/30 01:26:33;;;;;;;43.17;24.03;;;9.80;99.90;;;;;;10366609;28;20204;-86
2022/11/30 01:31:36;;;;;;;32.97;19.83;;;9.80;99.50;;;;;;10368240;28;20252;-86
2022/11/30 01:36:38;;;;;;;39.63;21.77;;;9.80;99.90;;;;;;10316366;28;20267;-87
2022/11/30 01:41:41;;;;;;;51.43;28.33;;;10.10;99.10;;;;;;10315914;28;20241;-86
2022/11/30 01:46:45;;;;;;;47.03;26.53;;;10.10;95.30;;;;;;10333253;28;20661;-86
2022/11/30 01:51:51;;;;;;;51.63;28.97;;;9.90;99.20;;;;;;10333252;28;20311;-87
2022/11/30 01:57:03;;;;;;;44.33;25.90;;;9.70;98.20;;;;;;10329204;28;20297;-86
2022/11/30 02:02:05;;;;;;;35.70;20.70;;;9.90;98.40;;;;;;10373638;28;20235;-86
2022/11/30 02:07:08;;;;;;;41.67;23.07;;;9.90;99.90;;;;;;10371148;28;20815;-87
2022/11/30 02:12:29;;;;;;;44.83;23.67;;;10.10;98.40;;;;;;10314944;28;20260;-87
2022/11/30 02:18:01;;;;;;;46.70;27.07;;;9.90;98.90;;;;;;10314780;28;20201;-87
2022/11/30 02:23:25;;;;;;;34.13;19.37;;;9.80;99.90;;;;;;10333073;28;20682;-87
2022/11/30 02:28:43;;;;;;;42.37;23.07;;;9.90;99.50;;;;;;10353947;28;20248;-87
2022/11/30 02:33:47;;;;;;;49.83;28.00;;;10.10;99.90;;;;;;10372275;28;20255;-87
2022/11/30 02:38:51;;;;;;;43.57;23.70;;;10.10;98.70;;;;;;10371198;28;20258;-87
2022/11/30 02:43:53;;;;;;;42.77;22.60;;;9.90;97.70;;;;;;10371176;28;20235;-86
2022/11/30 02:49:06;;;;;;;26.33;16.13;;;9.60;99.90;;;;;;10370797;28;20632;-86
2022/11/30 02:54:09;;;;;;;31.97;17.53;;;9.60;99.90;;;;;;10370948;28;20264;-86
2022/11/30 02:59:11;;;;;;;40.73;24.37;;;9.90;99.90;;;;;;10353332;28;20200;-87
2022/11/30 03:04:14;;;;;;;48.03;27.83;;;9.70;98.60;;;;;;10369844;28;20278;-86
2022/11/30 03:09:16;;;;;;;41.10;23.87;;;9.60;97.60;;;;;;10366716;28;20205;-86
2022/11/30 03:14:19;;;;;;;29.03;17.70;;;9.60;99.90;;;;;;10331914;28;20244;-86
2022/11/30 03:19:21;;;;;;;43.63;25.47;;;9.50;99.90;;;;;;10337731;28;20286;-86
2022/11/30 03:24:24;;;;;;;51.33;25.67;;;9.40;97.70;;;;;;10352136;28;20266;-86
2022/11/30 03:29:26;;;;;;;28.70;18.37;;;9.50;97.20;;;;;;10352152;28;20693;-86
2022/11/30 03:34:29;;;;;;;41.10;22.90;;;9.60;99.90;;;;;;10352957;28;20240;-86
2022/11/30 03:39:31;;;;;;;38.33;22.67;;;9.70;98.40;;;;;;10334831;28;20582;-86
2022/11/30 03:44:34;;;;;;;37.60;22.63;;;9.90;98.00;;;;;;10351418;28;20208;-86
2022/11/30 03:49:36;;;;;;;30.73;18.07;;;10.10;97.60;;;;;;10334841;28;21013;-86
2022/11/30 03:54:39;;;;;;;33.93;19.73;;;10.10;99.70;;;;;;10327072;28;20852;-86
2022/11/30 03:59:41;;;;;;;27.30;16.80;;;10.30;98.80;;;;;;10326945;28;20698;-86
2022/11/30 04:04:43;;;;;;;34.13;18.63;;;10.10;98.40;;;;;;10326692;28;20755;-86
2022/11/30 04:09:46;;;;;;;34.37;19.60;;;10.30;99.90;;;;;;10309427;28;20216;-86
2022/11/30 04:14:49;;;;;;;42.53;25.47;;;10.00;97.10;;;;;;10326535;28;20290;-86
2022/11/30 04:19:51;;;;;;;39.70;22.37;;;9.60;97.60;;;;;;10332166;28;20324;-86
2022/11/30 04:24:54;;;;;;;42.30;25.77;;;9.30;97.30;;;;;;10326362;28;20233;-86
2022/11/30 04:29:56;;;;;;;33.97;20.80;;;9.10;99.70;;;;;;10345557;28;20239;-86
2022/11/30 04:34:58;;;;;;;49.00;26.50;;;9.00;98.40;;;;;;10354024;28;20231;-86
2022/11/30 04:40:01;;;;;;;39.53;22.60;;;8.60;96.10;;;;;;10345342;28;20342;-86
2022/11/30 04:45:04;;;;;;;39.40;21.27;;;9.60;98.40;;;;;;10310654;28;20306;-86
2022/11/30 04:50:07;;;;;;;37.23;22.80;;;9.20;99.90;;;;;;10346478;28;20435;-86
2022/11/30 04:55:09;;;;;;;37.33;22.33;;;9.40;98.30;;;;;;10344015;28;20264;-86
2022/11/30 05:00:14;;;;;;;35.63;21.07;;;9.00;99.90;;;;;;10341584;28;20235;-86
2022/11/30 05:05:16;;;;;;;51.77;29.90;;;8.90;99.90;;;;;;10313604;28;20241;-86
2022/11/30 05:10:18;;;;;;;43.73;25.27;;;8.70;99.90;;;;;;10326891;28;20221;-86
2022/11/30 05:15:21;;;;;;;36.13;19.93;;;8.90;99.80;;;;;;10348315;28;20665;-86
2022/11/30 05:20:24;;;;;;;32.70;19.83;;;9.30;99.90;;;;;;10348323;28;20220;-86
2022/11/30 05:25:26;;;;;;;38.40;22.67;;;9.70;97.90;;;;;;10348524;28;20314;-86
2022/11/30 05:30:28;;;;;;;40.27;24.03;;;9.50;99.90;;;;;;10365399;28;20229;-86
2022/11/30 05:35:31;;;;;;;38.13;21.00;;;9.30;97.90;;;;;;10372680;28;20232;-87
2022/11/30 05:40:34;;;;;;;25.73;16.37;;;9.20;99.90;;;;;;10355033;28;20240;-87
2022/11/30 05:45:36;;;;;;;39.60;22.57;;;9.60;99.90;;;;;;10363573;28;20240;-86
2022/11/30 05:50:39;;;;;;;42.97;24.07;;;9.70;97.10;;;;;;10342283;28;20956;-86
2022/11/30 05:55:41;;;;;;;33.33;16.97;;;9.50;98.80;;;;;;10326478;28;20698;-86
2022/11/30 06:00:44;;;;;;;26.50;14.93;;;9.50;99.90;;;;;;10337321;28;20286;-86
2022/11/30 06:05:50;;;;;;;33.50;19.23;;;9.90;99.40;;;;;;10372427;28;20317;-86
2022/11/30 06:10:53;;;;;;;32.70;18.73;;;10.10;99.90;;;;;;10348573;28;20280;-87
2022/11/30 06:15:58;;;;;;;35.40;18.20;;;9.30;99.90;;;;;;10315383;28;20193;-86
2022/11/30 06:21:07;;;;;;;33.40;20.03;;;9.90;99.90;;;;;;10339618;28;20248;-87
2022/11/30 06:26:11;;;;;;;35.00;20.50;;;10.10;98.60;;;;;;10370011;28;20681;-86
2022/11/30 06:31:14;;;;;;;30.47;18.57;;;9.60;96.40;;;;;;10335513;28;20240;-86
2022/11/30 06:36:23;;;;;;;37.93;22.07;;;9.20;98.10;;;;;;10323454;28;20225;-86
2022/11/30 06:41:25;;;;;;;35.93;20.70;;;9.30;96.50;;;;;;10329984;28;20220;-86
2022/11/30 06:46:28;;;;;;;33.27;17.83;;;9.20;99.90;;;;;;10347100;28;20267;-86
2022/11/30 06:51:30;;;;;;;41.17;20.07;;;9.30;99.90;;;;;;10368477;28;20247;-89
2022/11/30 06:56:33;;;;;;;50.23;26.43;;;10.10;95.30;;;;;;10353460;28;20282;-89
2022/11/30 07:01:35;;;;;;;56.03;29.90;;;10.30;90.70;;;;;;10352784;28;20250;-89
2022/11/30 07:06:38;;;;;;;47.70;25.17;;;9.70;86.00;;;;;;10353487;28;20251;-89
2022/11/30 07:11:40;;;;;;;58.00;30.00;;;9.50;89.70;;;;;;10354807;28;20243;-90
2022/11/30 07:16:43;;;;;;;64.87;32.13;;;9.90;85.00;;;;;;10358502;28;20279;-89
2022/11/30 07:21:45;;;;;;;61.63;29.60;;;9.20;86.00;;;;;;10320732;28;20232;-91
2022/11/30 07:26:47;;;;;;;57.13;30.17;;;8.80;90.20;;;;;;10334657;28;20261;-91
2022/11/30 07:31:51;;;;;;;54.67;27.17;;;8.80;90.70;;;;;;10335140;28;20259;-90
2022/11/30 07:36:54;;;;;;;57.03;29.07;;;8.70;91.40;;;;;;10352320;28;20242;-92
2022/11/30 07:41:56;;;;;;;46.97;25.70;;;8.70;93.80;;;;;;10347494;28;20287;-91
2022/11/30 07:47:00;;;;;;;37.57;19.23;;;9.30;94.50;;;;;;10295124;28;20216;-90
2022/11/30 07:52:03;;;;;;;56.67;30.53;;;9.60;94.20;;;;;;10329593;28;20248;-91
2022/11/30 07:57:05;;;;;;;57.67;30.33;;;9.30;90.30;;;;;;10326518;28;20263;-90
2022/11/30 08:02:09;;;;;;;56.10;29.87;;;9.20;93.00;;;;;;10309312;28;20275;-91
2022/11/30 08:07:12;;;;;;;60.93;30.27;;;8.00;91.40;;;;;;10326822;28;20228;-91
2022/11/30 08:12:14;;;;;;;41.73;22.30;;;8.30;95.10;;;;;;10308321;28;20283;-90
2022/11/30 08:17:17;;;;;;;46.33;23.70;;;8.80;97.50;;;;;;10325366;28;20533;-92
2022/11/30 08:22:20;;;;;;;52.00;28.13;;;9.00;96.90;;;;;;10328619;28;20237;-91
2022/11/30 08:27:22;;;;;;;52.70;28.50;;;9.00;94.30;;;;;;10349274;28;20216;-91
2022/11/30 08:32:25;;;;;;;50.83;26.20;;;8.60;94.10;;;;;;10348967;28;20309;-91
2022/11/30 08:37:27;;;;;;;51.90;27.83;;;8.70;94.40;;;;;;10365862;28;20223;-89
2022/11/30 08:42:30;;;;;;;49.70;26.17;;;8.30;94.90;;;;;;10348260;28;20755;-90
2022/11/30 08:47:33;;;;;;;45.30;23.80;;;8.90;97.60;;;;;;10366191;28;20262;-91
2022/11/30 08:52:35;;;;;;;45.50;23.37;;;8.60;98.20;;;;;;10346503;28;20252;-90
2022/11/30 08:57:38;;;;;;;46.60;24.30;;;9.00;97.20;;;;;;10322800;28;1094824;-92
2022/11/30 09:02:41;;;;;;;43.37;22.43;;;9.20;95.80;;;;;;10332565;28;20278;-91
2022/11/30 09:07:43;;;;;;;42.50;22.43;;;9.40;94.90;;;;;;10333830;28;20711;-89
2022/11/30 09:12:46;;;;;;;45.23;23.37;;;10.00;95.30;;;;;;10318326;28;20256;-90
2022/11/30 09:17:48;;;;;;;46.43;25.13;;;9.80;94.60;;;;;;10336627;28;20291;-90
2022/11/30 09:22:52;;;;;;;40.03;21.80;;;9.90;93.90;;;;;;10317105;28;20763;-90
2022/11/30 09:27:54;;;;;;;48.47;27.87;;;10.60;95.70;;;;;;10307297;28;20653;-90
2022/11/30 09:32:59;;;;;;;43.97;23.57;;;9.60;91.00;;;;;;10373759;28;20259;-90
2022/11/30 09:38:02;;;;;;;43.07;24.50;;;9.40;95.70;;;;;;10340259;28;20258;-90
2022/11/30 09:43:29;;;;;;;43.90;24.33;;;9.40;96.60;;;;;;10355723;28;20280;-90
2022/11/30 09:49:01;;;;;;;37.80;18.73;;;9.20;95.20;;;;;;10350246;28;20674;-91
2022/11/30 09:54:10;;;;;;;43.60;22.77;;;8.80;99.90;;;;;;10354638;28;20267;-89
2022/11/30 09:59:28;;;;;;;57.20;31.60;;;9.30;96.90;;;;;;10372759;28;20196;-89
2022/11/30 10:04:30;;;;;;;46.17;24.53;;;9.10;97.00;;;;;;10337561;28;20221;-88
2022/11/30 10:09:48;;;;;;;44.30;24.07;;;9.10;95.00;;;;;;10352023;28;20228;-89
2022/11/30 10:15:32;;;;;;;45.77;23.03;;;8.70;98.40;;;;;;10354550;28;20252;-89
2022/11/30 10:20:57;;;;;;;52.73;28.17;;;9.20;99.00;;;;;;10337367;28;20196;-89
2022/11/30 10:26:10;;;;;;;49.97;25.67;;;9.10;97.50;;;;;;10314318;28;20764;-90
2022/11/30 10:31:14;;;;;;;37.77;20.07;;;8.70;95.10;;;;;;10341159;28;20231;-90
2022/11/30 10:36:36;;;;;;;50.17;25.43;;;9.40;98.80;;;;;;10317842;28;20381;-90
2022/11/30 10:41:46;;;;;;;39.83;22.07;;;8.90;95.70;;;;;;10353473;28;20227;-89
2022/11/30 10:47:13;;;;;;;50.97;25.83;;;9.20;97.50;;;;;;10327658;28;20223;-91
2022/11/30 10:52:24;;;;;;;44.87;23.17;;;9.40;97.90;;;;;;10355550;28;20236;-90
2022/11/30 10:57:30;;;;;;;40.17;20.80;;;9.70;96.60;;;;;;10312826;28;20330;-90
2022/11/30 11:02:42;;;;;;;58.40;29.10;;;9.70;96.70;;;;;;10330052;28;20232;-89
2022/11/30 11:08:15;;;;;;;44.97;23.73;;;9.70;94.40;;;;;;10330110;28;20235;-90
2022/11/30 11:13:34;;;;;;;39.97;19.53;;;8.40;97.60;;;;;;10312252;28;20315;-89
2022/11/30 11:18:54;;;;;;;44.63;23.03;;;8.40;99.40;;;;;;10336426;28;20618;-90
2022/11/30 11:23:57;;;;;;;46.00;23.63;;;8.60;98.20;;;;;;10325954;28;20228;-91
2022/11/30 11:28:59;;;;;;;60.43;29.80;;;8.50;99.90;;;;;;10311728;28;20768;-90
2022/11/30 11:34:04;;;;;;;63.03;31.73;;;8.90;96.80;;;;;;10324980;28;20691;-90
2022/11/30 11:39:24;;;;;;;58.17;28.33;;;9.00;95.00;;;;;;10351193;28;20266;-91
2022/11/30 11:44:27;;;;;;;40.13;21.87;;;8.80;99.90;;;;;;10332338;28;20267;-90
2022/11/30 11:49:33;;;;;;;48.10;24.47;;;9.00;98.70;;;;;;10352296;28;20236;-90
2022/11/30 11:54:50;;;;;;;39.80;22.23;;;9.50;96.80;;;;;;10310712;28;20271;-90
2022/11/30 12:00:16;;;;;;;55.17;27.20;;;9.00;99.30;;;;;;10328542;28;20236;-89
2022/11/30 12:05:28;;;;;;;37.40;20.60;;;8.60;97.00;;;;;;10351231;28;20255;-90
2022/11/30 12:10:49;;;;;;;43.83;22.40;;;9.10;98.50;;;;;;10352650;28;20611;-90
2022/11/30 12:16:18;;;;;;;45.60;22.00;;;8.90;97.50;;;;;;10328073;28;20256;-90
2022/11/30 12:21:33;;;;;;;35.73;18.13;;;8.30;99.90;;;;;;10310945;28;20196;-90
2022/11/30 12:26:49;;;;;;;40.00;21.57;;;8.90;99.90;;;;;;10328908;28;20293;-91
2022/11/30 12:32:18;;;;;;;42.10;22.23;;;9.30;99.90;;;;;;10327496;28;20298;-90
2022/11/30 12:37:50;;;;;;;49.20;22.63;;;9.60;97.20;;;;;;10310193;28;20258;-92
2022/11/30 12:43:07;;;;;;;47.50;22.47;;;9.40;98.00;;;;;;10339691;28;20224;-92
2022/11/30 12:48:37;;;;;;;44.90;24.70;;;9.00;97.40;;;;;;10342570;28;20289;-91
2022/11/30 12:54:03;;;;;;;46.70;23.00;;;9.40;94.70;;;;;;10358112;28;20332;-91
2022/11/30 12:59:20;;;;;;;41.03;19.87;;;9.10;95.10;;;;;;10375741;28;20235;-90
2022/11/30 13:04:27;;;;;;;46.87;24.67;;;8.90;98.60;;;;;;10358037;28;20681;-89
2022/11/30 13:09:48;;;;;;;46.33;23.73;;;9.30;96.80;;;;;;10329635;28;20233;-90
2022/11/30 13:14:57;;;;;;;52.17;26.27;;;9.40;97.00;;;;;;10344131;28;20255;-91
2022/11/30 13:20:14;;;;;;;33.87;17.97;;;9.20;95.10;;;;;;10341665;28;20322;-90
2022/11/30 13:25:29;;;;;;;39.20;20.87;;;8.80;98.70;;;;;;10317226;28;20610;-90
2022/11/30 13:30:58;;;;;;;36.33;20.63;;;8.50;99.10;;;;;;10303183;28;20225;-91
2022/11/30 13:36:05;;;;;;;44.03;22.33;;;8.90;97.60;;;;;;10334280;28;20220;-90
2022/11/30 13:41:08;;;;;;;50.53;25.83;;;9.10;99.00;;;;;;10346053;28;20196;-94
2022/11/30 13:46:18;;;;;;;38.90;21.10;;;8.90;95.40;;;;;;10355875;28;20646;-91
2022/11/30 13:51:38;;;;;;;41.40;21.53;;;9.50;98.30;;;;;;10336263;28;20197;-88
2022/11/30 13:56:41;;;;;;;41.20;21.37;;;8.90;97.20;;;;;;10362341;28;20305;-91
2022/11/30 14:02:28;;;;;;;48.07;25.93;;;8.90;99.60;;;;;;10371379;28;20282;-91
2022/11/30 14:07:51;;;;;;;44.40;24.17;;;9.10;96.90;;;;;;10357107;28;20250;-90
2022/11/30 14:13:03;;;;;;;26.57;12.33;;;8.70;97.30;;;;;;10336302;28;20787;-88
2022/11/30 14:18:08;;;;;;;55.67;26.80;;;9.60;95.50;;;;;;10374009;28;20251;-88
2022/11/30 14:23:16;;;;;;;54.63;27.10;;;9.80;87.70;;;;;;10338620;28;20239;-88
2022/11/30 14:28:33;;;;;;;61.80;30.53;;;9.50;90.20;;;;;;10372116;28;20282;-90
2022/11/30 14:34:05;;;;;;;48.87;26.63;;;8.80;88.20;;;;;;10372170;28;20313;-89
2022/11/30 14:39:32;;;;;;;58.33;29.40;;;8.80;92.10;;;;;;10350099;28;20306;-90
2022/11/30 14:44:38;;;;;;;52.97;24.20;;;8.80;90.90;;;;;;10371518;28;20289;-90
2022/11/30 14:49:46;;;;;;;52.43;28.43;;;8.70;92.90;;;;;;10353993;28;20240;-89
2022/11/30 14:55:06;;;;;;;57.53;28.90;;;8.90;92.50;;;;;;10353647;28;20345;-89
2022/11/30 15:00:18;;;;;;;54.63;27.67;;;8.70;91.20;;;;;;10353293;28;20235;-90
2022/11/30 15:05:26;;;;;;;49.43;24.67;;;8.00;93.10;;;;;;10352674;28;20687;-89
2022/11/30 15:10:31;;;;;;;48.43;25.17;;;8.50;95.40;;;;;;10371007;28;20228;-89
2022/11/30 15:15:34;;;;;;;49.93;24.50;;;8.60;95.80;;;;;;10352742;28;20232;-90
2022/11/30 15:20:46;;;;;;;55.57;32.40;;;8.20;94.80;;;;;;10370576;28;20192;-90
2022/11/30 15:25:57;;;;;;;66.70;33.27;;;8.00;93.30;;;;;;10356844;28;20282;-88
2022/11/30 15:31:03;;;;;;;63.53;40.83;;;9.30;93.50;;;;;;10330487;28;20193;-89
2022/11/30 15:36:06;;;;;;;55.60;31.67;;;8.60;89.40;;;;;;10329821;28;20256;-89
2022/11/30 15:41:29;;;;;;;48.57;28.17;;;9.00;90.70;;;;;;10346854;28;20258;-89
2022/11/30 15:46:38;;;;;;;50.53;26.73;;;8.40;92.90;;;;;;10367956;28;20236;-88
2022/11/30 15:52:01;;;;;;;59.97;29.97;;;9.00;92.60;;;;;;10314751;28;20236;-88
2022/11/30 15:57:03;;;;;;;49.43;27.47;;;9.50;89.00;;;;;;10328475;28;20264;-88
2022/11/30 16:02:31;;;;;;;44.87;25.17;;;9.40;91.90;;;;;;10295011;28;20263;-89
2022/11/30 16:07:37;;;;;;;41.10;23.77;;;9.40;86.90;;;;;;10338644;28;20231;-88
2022/11/30 16:12:42;;;;;;;50.50;27.70;;;9.60;92.70;;;;;;10340423;28;20208;-87
2022/11/30 16:17:45;;;;;;;50.73;26.17;;;9.30;90.10;;;;;;10350803;28;20209;-89
2022/11/30 16:22:48;;;;;;;59.17;30.00;;;8.70;91.70;;;;;;10348926;28;20227;-89
2022/11/30 16:27:51;;;;;;;41.10;24.03;;;8.90;92.20;;;;;;10344265;28;20282;-88
2022/11/30 16:32:55;;;;;;;48.27;25.00;;;8.80;95.00;;;;;;10350392;28;20689;-89
2022/11/30 16:37:57;;;;;;;44.40;26.10;;;8.70;95.90;;;;;;10349552;28;20255;-87
2022/11/30 16:43:00;;;;;;;51.53;29.17;;;9.10;95.90;;;;;;10367764;28;20254;-89
2022/11/30 16:48:03;;;;;;;51.43;32.67;;;9.20;91.50;;;;;;10367934;28;20270;-88
2022/11/30 16:53:05;;;;;;;43.27;25.00;;;9.60;92.30;;;;;;10352012;28;20204;-89
2022/11/30 16:58:08;;;;;;;50.80;30.00;;;9.40;91.50;;;;;;10339466;28;20252;-89
2022/11/30 17:03:28;;;;;;;47.73;28.50;;;9.10;92.10;;;;;;10343630;28;20233;-87
2022/11/30 17:08:31;;;;;;;142.47;38.00;;;8.80;90.40;;;;;;10348652;28;20259;-90
2022/11/30 17:13:33;;;;;;;135.40;36.63;;;9.80;91.80;;;;;;10339057;28;20794;-89
2022/11/30 17:18:35;;;;;;;106.20;36.33;;;9.90;82.40;;;;;;10340665;28;20278;-89
2022/11/30 17:23:38;;;;;;;108.80;37.47;;;9.00;78.80;;;;;;10351403;28;20228;-88
2022/11/30 17:28:41;;;;;;;119.50;36.97;;;9.10;80.30;;;;;;10352290;28;20721;-90
2022/11/30 17:33:43;;;;;;;68.87;41.37;;;8.90;82.10;;;;;;10359640;28;20332;-90
2022/11/30 17:38:50;;;;;;;70.70;30.20;;;;;;;;;;10344327;28;20254;-89
2022/11/30 17:43:52;;;;;;;72.53;29.10;;;5.10;99.90;;;;;;10358299;28;20248;-89
2022/11/30 17:48:55;;;;;;;80.57;29.10;;;6.50;99.90;;;;;;10372650;28;20233;-89
2022/11/30 17:53:57;;;;;;;68.77;28.80;;;8.20;99.90;;;;;;10372569;28;20315;-89
2022/11/30 17:59:00;;;;;;;66.57;27.13;;;8.80;99.70;;;;;;10355902;28;20239;-89
2022/11/30 18:04:02;;;;;;;57.30;23.43;;;9.40;94.50;;;;;;10346828;28;20231;-89
2022/11/30 18:09:05;;;;;;;61.60;26.87;;;9.20;96.50;;;;;;10343301;28;20272;-91
2022/11/30 18:14:07;;;;;;;50.53;23.07;;;9.10;94.80;;;;;;9987654;28;9999994;-89
2022/11/30 18:19:13;;;;;;;58.77;24.93;;;8.70;96.80;;;;;;9986149;28;10000542;-89
2022/11/30 18:24:16;;;;;;;56.90;24.33;;;8.90;96.90;;;;;;10313634;28;20236;-89
2022/11/30 18:29:26;;;;;;;61.07;24.57;;;9.50;97.20;;;;;;10332975;28;20290;-89
2022/11/30 18:34:29;;;;;;;52.07;21.93;;;8.80;94.40;;;;;;10369164;28;20711;-90
2022/11/30 18:39:31;;;;;;;47.53;21.47;;;9.10;98.10;;;;;;10350151;28;20232;-89
2022/11/30 18:44:34;;;;;;;64.87;24.67;;;9.50;96.40;;;;;;10332342;28;20283;-91
2022/11/30 18:49:37;;;;;;;57.87;26.93;;;9.20;94.60;;;;;;10358334;28;20294;-91
2022/11/30 18:54:39;;;;;;;39.23;19.20;;;9.50;91.40;;;;;;10366428;28;20267;-90
2022/11/30 18:59:41;;;;;;;40.97;20.03;;;9.50;96.50;;;;;;10350665;28;20275;-89
2022/11/30 19:04:44;;;;;;;76.33;32.90;;;9.80;95.40;;;;;;10316477;28;20565;-90
2022/11/30 19:09:46;;;;;;;43.43;18.43;;;10.10;91.20;;;;;;10339002;28;20243;-91
2022/11/30 19:14:49;;;;;;;50.10;20.93;;;10.10;93.80;;;;;;10353743;28;20668;-91
2022/11/30 19:19:52;;;;;;;81.70;35.87;;;9.90;92.60;;;;;;10324063;28;20354;-91
2022/11/30 19:24:54;;;;;;;47.17;23.27;;;9.30;93.30;;;;;;10325806;28;20266;-90
2022/11/30 19:29:58;;;;;;;63.87;29.27;;;9.40;93.80;;;;;;10352793;28;20918;-91
2022/11/30 19:35:01;;;;;;;40.30;23.07;;;9.50;90.10;;;;;;10350580;28;20935;-89
2022/11/30 19:40:04;;;;;;;54.73;24.67;;;9.00;93.90;;;;;;10366480;28;20196;-90
2022/11/30 19:45:08;;;;;;;42.77;20.50;;;8.90;95.20;;;;;;10352185;28;20623;-90
2022/11/30 19:50:10;;;;;;;45.77;20.73;;;9.40;96.90;;;;;;10328181;28;20699;-92
2022/11/30 19:55:13;;;;;;;43.80;26.60;;;9.50;95.00;;;;;;10355439;28;20251;-90
2022/11/30 20:00:16;;;;;;;35.20;17.00;;;9.50;84.80;;;;;;10328937;28;20244;-90
2022/11/30 20:05:18;;;;;;;44.03;22.77;;;9.00;99.90;;;;;;10326646;28;20201;-89
2022/11/30 20:10:21;;;;;;;55.13;23.87;;;8.80;98.60;;;;;;10352287;28;20201;-91
2022/11/30 20:15:24;;;;;;;101.43;41.10;;;9.60;99.90;;;;;;10333678;28;20279;-91
2022/11/30 20:20:26;;;;;;;40.87;20.33;;;9.60;92.00;;;;;;10353898;28;20255;-90
2022/11/30 20:25:30;;;;;;;41.17;19.90;;;9.50;99.90;;;;;;10335843;28;20254;-90
2022/11/30 20:30:33;;;;;;;38.07;20.13;;;9.80;95.40;;;;;;10332300;28;20270;-90
2022/11/30 20:35:35;;;;;;;29.70;18.20;;;9.70;94.50;;;;;;10336251;28;20224;-91
2022/11/30 20:40:38;;;;;;;41.27;23.57;;;9.50;95.80;;;;;;10352369;28;20197;-90
2022/11/30 20:45:41;;;;;;;37.10;19.43;;;9.40;89.00;;;;;;10350724;28;20235;-93
2022/11/30 20:50:43;;;;;;;35.93;18.40;;;9.60;95.30;;;;;;10367995;28;20300;-90
2022/11/30 20:56:07;;;;;;;41.03;23.27;;;10.20;93.90;;;;;;10356460;28;20636;-91
2022/11/30 21:01:13;;;;;;;37.00;19.63;;;9.60;88.30;;;;;;10352398;28;20201;-91
2022/11/30 21:06:15;;;;;;;36.83;21.17;;;9.70;97.10;;;;;;10405505;28;20193;-90
2022/11/30 21:11:19;;;;;;;28.17;15.90;;;9.70;95.00;;;;;;10406799;28;20263;-91
2022/11/30 21:16:24;;;;;;;29.30;17.80;;;10.00;97.20;;;;;;10390211;28;20239;-91
2022/11/30 21:21:32;;;;;;;33.20;20.27;;;9.80;96.50;;;;;;10396087;28;20211;-90
2022/11/30 21:26:40;;;;;;;38.20;22.57;;;9.40;96.20;;;;;;10399138;28;20267;-90
2022/11/30 21:31:43;;;;;;;32.07;18.80;;;8.90;91.90;;;;;;10406617;28;20219;-92
2022/11/30 21:36:46;;;;;;;34.80;20.00;;;8.80;95.80;;;;;;10394464;28;20216;-94
2022/11/30 21:41:49;;;;;;;34.57;20.50;;;8.80;94.80;;;;;;10381762;28;20196;-93
2022/11/30 21:46:51;;;;;;;41.97;23.40;;;9.10;94.70;;;;;;10384719;28;20200;-92
2022/11/30 21:51:54;;;;;;;29.47;17.80;;;8.80;92.80;;;;;;10390128;28;20193;-92
2022/11/30 21:56:56;;;;;;;41.37;24.63;;;8.60;98.80;;;;;;10405981;28;20498;-94
2022/11/30 22:01:59;;;;;;;43.33;22.47;;;8.50;94.60;;;;;;10389221;28;20181;-92
2022/11/30 22:07:01;;;;;;;61.27;30.87;;;8.20;98.10;;;;;;10388362;28;20200;-90
2022/11/30 22:12:04;;;;;;;36.90;23.07;;;8.20;95.40;;;;;;10382705;28;20189;-92
2022/11/30 22:17:07;;;;;;;34.17;18.40;;;8.00;94.40;;;;;;10394355;28;20204;-91
2022/11/30 22:22:09;;;;;;;47.07;27.80;;;8.60;99.70;;;;;;10425138;28;20203;-92
2022/11/30 22:27:12;;;;;;;25.33;15.13;;;8.70;90.60;;;;;;10404168;28;20215;-92
2022/11/30 22:32:14;;;;;;;29.13;17.70;;;8.40;99.90;;;;;;10378267;28;20225;-93
2022/11/30 22:37:17;;;;;;;34.23;21.30;;;8.80;99.30;;;;;;10398664;28;20220;-92
2022/11/30 22:42:19;;;;;;;30.87;17.73;;;8.40;97.50;;;;;;10389553;28;20181;-92
2022/11/30 22:47:21;;;;;;;28.30;16.87;;;8.60;95.90;;;;;;10419456;28;20299;-93
2022/11/30 22:52:24;;;;;;;31.03;18.90;;;8.30;96.90;;;;;;10402958;28;20227;-93
2022/11/30 22:57:46;;;;;;;33.93;19.13;;;8.80;96.50;;;;;;10410336;28;20236;-94
2022/11/30 23:02:49;;;;;;;31.10;18.87;;;8.70;95.60;;;;;;10360783;28;20504;-95
2022/11/30 23:07:51;;;;;;;23.73;15.00;;;8.70;95.80;;;;;;10365382;28;20235;-92
2022/11/30 23:12:54;;;;;;;23.93;14.73;;;9.00;99.90;;;;;;10381721;28;20637;-91
2022/11/30 23:18:01;;;;;;;27.03;16.63;;;9.40;99.80;;;;;;10375285;28;20581;-90
2022/11/30 23:23:03;;;;;;;31.97;20.23;;;8.70;96.10;;;;;;10380455;28;20621;-90
2022/11/30 23:28:06;;;;;;;47.20;21.03;;;8.70;93.70;;;;;;10358529;28;20764;-90
2022/11/30 23:33:09;;;;;;;27.60;15.83;;;8.30;98.40;;;;;;10376776;28;20239;-91
2022/11/30 23:38:11;;;;;;;24.33;14.73;;;8.70;99.00;;;;;;10377255;28;20224;-90
2022/11/30 23:43:14;;;;;;;21.97;14.23;;;8.70;99.40;;;;;;10331827;28;20674;-89
2022/11/30 23:48:16;;;;;;;25.70;15.13;;;9.10;98.90;;;;;;10353887;28;20254;-92
2022/11/30 23:53:19;;;;;;;22.80;15.30;;;9.10;97.50;;;;;;10372510;28;20567;-91
2022/11/30 23:58:22;;;;;;;27.10;16.20;;;8.70;94.60;;;;;;10322889;28;20263;-94
